createdAt,value
2018-06-24T00:00:06.022Z,1014.12
2018-06-24T00:01:06.040Z,1014.11
2018-06-24T00:02:06.061Z,1014.12
2018-06-24T00:03:06.087Z,1014.1
2018-06-24T00:04:06.106Z,1014.09
2018-06-24T00:05:06.126Z,1014.07
2018-06-24T00:06:06.148Z,1014.03
2018-06-24T00:07:06.170Z,1014.1
2018-06-24T00:08:06.198Z,1014.04
2018-06-24T00:09:06.213Z,1014.07
2018-06-24T00:10:06.238Z,1013.99
2018-06-24T00:11:06.257Z,1014.01
2018-06-24T00:13:06.300Z,1013.93
2018-06-24T00:14:06.321Z,1013.95
2018-06-24T00:15:06.344Z,1013.93
2018-06-24T00:16:06.374Z,1013.96
2018-06-24T00:17:06.386Z,1013.92
2018-06-24T00:18:06.409Z,1013.91
2018-06-24T00:19:06.435Z,1013.89
2018-06-24T00:20:06.452Z,1013.9
2018-06-24T00:21:06.473Z,1013.93
2018-06-24T00:22:06.494Z,1013.91
2018-06-24T00:23:06.516Z,1013.89
2018-06-24T00:24:06.536Z,1013.83
2018-06-24T00:25:06.560Z,1013.87
2018-06-24T00:26:06.581Z,1013.84
2018-06-24T00:27:06.602Z,1013.84
2018-06-24T00:29:06.646Z,1013.82
2018-06-24T00:30:06.668Z,1013.84
2018-06-24T00:31:06.689Z,1013.87
2018-06-24T00:32:06.710Z,1013.8
2018-06-24T00:33:06.733Z,1013.85
2018-06-24T00:34:06.753Z,1013.85
2018-06-24T00:35:06.781Z,1013.86
2018-06-24T00:36:06.801Z,1013.86
2018-06-24T00:37:06.862Z,1013.82
2018-06-24T00:38:06.840Z,1013.87
2018-06-24T00:39:06.863Z,1013.84
2018-06-24T00:40:06.884Z,1013.81
2018-06-24T00:41:06.906Z,1013.81
2018-06-24T00:42:06.926Z,1013.79
2018-06-24T00:44:06.972Z,1013.76
2018-06-24T00:45:06.995Z,1013.84
2018-06-24T00:46:07.015Z,1013.75
2018-06-24T00:47:07.037Z,1013.78
2018-06-24T00:48:07.058Z,1013.78
2018-06-24T00:49:07.079Z,1013.77
2018-06-24T00:50:07.101Z,1013.8
2018-06-24T00:51:07.122Z,1013.77
2018-06-24T00:53:07.166Z,1013.71
2018-06-24T00:54:07.187Z,1013.67
2018-06-24T00:55:07.209Z,1013.65
2018-06-24T00:56:07.230Z,1013.67
2018-06-24T00:57:07.252Z,1013.68
2018-06-24T00:58:07.274Z,1013.66
2018-06-24T00:59:07.294Z,1013.65
2018-06-24T01:00:07.317Z,1013.66
2018-06-24T01:01:07.339Z,1013.7
2018-06-24T01:02:07.360Z,1013.62
2018-06-24T01:03:07.384Z,1013.65
2018-06-24T01:04:07.405Z,1013.67
2018-06-24T01:05:07.424Z,1013.67
2018-06-24T01:06:07.446Z,1013.63
2018-06-24T01:07:07.467Z,1013.64
2018-06-24T01:08:07.489Z,1013.68
2018-06-24T01:09:07.510Z,1013.6
2018-06-24T01:10:07.637Z,1013.65
2018-06-24T01:11:07.555Z,1013.64
2018-06-24T01:12:07.574Z,1013.67
2018-06-24T01:13:07.598Z,1013.63
2018-06-24T01:14:07.618Z,1013.62
2018-06-24T01:16:07.661Z,1013.63
2018-06-24T01:17:07.686Z,1013.64
2018-06-24T01:18:07.703Z,1013.67
2018-06-24T01:19:07.726Z,1013.67
2018-06-24T01:20:07.747Z,1013.65
2018-06-24T01:21:07.771Z,1013.68
2018-06-24T01:22:07.795Z,1013.66
2018-06-24T01:23:07.815Z,1013.67
2018-06-24T01:24:07.836Z,1013.69
2018-06-24T01:25:07.865Z,1013.65
2018-06-24T01:26:07.875Z,1013.69
2018-06-24T01:27:07.896Z,1013.66
2018-06-24T01:28:07.919Z,1013.63
2018-06-24T01:29:07.940Z,1013.65
2018-06-24T01:30:07.962Z,1013.66
2018-06-24T01:32:08.005Z,1013.62
2018-06-24T01:33:08.027Z,1013.65
2018-06-24T01:34:08.147Z,1013.65
2018-06-24T01:35:08.068Z,1013.62
2018-06-24T01:36:08.091Z,1013.62
2018-06-24T01:37:08.112Z,1013.59
2018-06-24T01:38:08.135Z,1013.59
2018-06-24T01:39:08.156Z,1013.62
2018-06-24T01:40:08.178Z,1013.64
2018-06-24T01:41:08.199Z,1013.65
2018-06-24T01:42:08.220Z,1013.63
2018-06-24T01:43:08.242Z,1013.63
2018-06-24T01:44:08.262Z,1013.62
2018-06-24T01:45:08.285Z,1013.62
2018-06-24T01:46:08.307Z,1013.59
2018-06-24T01:48:08.349Z,1013.6
2018-06-24T01:49:08.371Z,1013.58
2018-06-24T01:50:08.393Z,1013.59
2018-06-24T01:51:08.416Z,1013.59
2018-06-24T01:52:08.435Z,1013.59
2018-06-24T01:53:08.457Z,1013.56
2018-06-24T01:54:08.479Z,1013.56
2018-06-24T01:55:08.500Z,1013.59
2018-06-24T01:56:08.522Z,1013.57
2018-06-24T01:57:08.544Z,1013.55
2018-06-24T01:58:08.565Z,1013.56
2018-06-24T01:59:08.586Z,1013.54
2018-06-24T02:00:08.608Z,1013.54
2018-06-24T02:01:08.628Z,1013.49
2018-06-24T02:02:08.654Z,1013.53
2018-06-24T02:04:08.695Z,1013.55
2018-06-24T02:05:08.716Z,1013.53
2018-06-24T02:06:08.737Z,1013.53
2018-06-24T02:07:08.759Z,1013.52
2018-06-24T02:08:08.781Z,1013.48
2018-06-24T02:09:08.802Z,1013.49
2018-06-24T02:10:08.823Z,1013.54
2018-06-24T02:11:08.845Z,1013.5
2018-06-24T02:12:08.867Z,1013.53
2018-06-24T02:13:08.887Z,1013.5
2018-06-24T02:14:08.909Z,1013.52
2018-06-24T02:15:08.930Z,1013.46
2018-06-24T02:16:08.953Z,1013.5
2018-06-24T02:17:08.974Z,1013.45
2018-06-24T02:19:09.018Z,1013.44
2018-06-24T02:20:09.039Z,1013.45
2018-06-24T02:21:09.061Z,1013.46
2018-06-24T02:22:09.089Z,1013.49
2018-06-24T02:23:09.105Z,1013.44
2018-06-24T02:24:09.126Z,1013.48
2018-06-24T02:25:09.149Z,1013.45
2018-06-24T02:26:09.169Z,1013.45
2018-06-24T02:27:09.190Z,1013.46
2018-06-24T02:28:09.210Z,1013.43
2018-06-24T02:29:09.233Z,1013.43
2018-06-24T02:30:09.256Z,1013.35
2018-06-24T02:31:09.377Z,1013.36
2018-06-24T02:32:09.298Z,1013.4
2018-06-24T02:33:09.318Z,1013.4
2018-06-24T02:34:09.343Z,1013.41
2018-06-24T02:35:09.363Z,1013.38
2018-06-24T02:36:09.390Z,1013.38
2018-06-24T02:37:09.407Z,1013.39
2018-06-24T02:38:09.430Z,1013.37
2018-06-24T02:39:09.449Z,1013.42
2018-06-24T02:40:09.471Z,1013.41
2018-06-24T02:41:09.493Z,1013.46
2018-06-24T02:42:09.516Z,1013.46
2018-06-24T02:43:09.585Z,1013.43
2018-06-24T02:44:09.557Z,1013.42
2018-06-24T02:45:09.579Z,1013.41
2018-06-24T02:46:09.599Z,1013.4
2018-06-24T02:47:09.620Z,1013.41
2018-06-24T02:48:09.642Z,1013.36
2018-06-24T02:49:09.663Z,1013.37
2018-06-24T02:51:09.706Z,1013.33
2018-06-24T02:52:09.731Z,1013.39
2018-06-24T02:53:09.759Z,1013.36
2018-06-24T02:54:09.809Z,1013.37
2018-06-24T02:55:09.792Z,1013.34
2018-06-24T02:56:09.815Z,1013.38
2018-06-24T02:57:09.836Z,1013.33
2018-06-24T02:58:09.857Z,1013.35
2018-06-24T02:59:09.877Z,1013.37
2018-06-24T03:00:09.898Z,1013.38
2018-06-24T03:01:09.920Z,1013.34
2018-06-24T03:02:09.944Z,1013.37
2018-06-24T03:03:09.965Z,1013.39
2018-06-24T03:04:09.995Z,1013.38
2018-06-24T03:05:10.007Z,1013.36
2018-06-24T03:07:10.050Z,1013.33
2018-06-24T03:08:10.071Z,1013.36
2018-06-24T03:09:10.091Z,1013.41
2018-06-24T03:10:10.114Z,1013.41
2018-06-24T03:11:10.135Z,1013.38
2018-06-24T03:12:10.155Z,1013.37
2018-06-24T03:13:10.197Z,1013.42
2018-06-24T03:14:10.200Z,1013.39
2018-06-24T03:15:10.221Z,1013.43
2018-06-24T03:16:10.250Z,1013.43
2018-06-24T03:17:10.268Z,1013.4
2018-06-24T03:18:10.285Z,1013.37
2018-06-24T03:19:10.314Z,1013.39
2018-06-24T03:20:10.328Z,1013.38
2018-06-24T03:21:10.598Z,1013.39
2018-06-24T03:23:10.390Z,1013.38
2018-06-24T03:24:10.412Z,1013.38
2018-06-24T03:25:10.435Z,1013.35
2018-06-24T03:26:10.455Z,1013.4
2018-06-24T03:27:10.477Z,1013.36
2018-06-24T03:28:10.499Z,1013.42
2018-06-24T03:29:10.520Z,1013.38
2018-06-24T03:30:10.543Z,1013.44
2018-06-24T03:31:10.563Z,1013.4
2018-06-24T03:32:10.585Z,1013.46
2018-06-24T03:33:10.605Z,1013.4
2018-06-24T03:34:10.627Z,1013.46
2018-06-24T03:35:10.648Z,1013.47
2018-06-24T03:36:10.673Z,1013.46
2018-06-24T03:37:10.690Z,1013.47
2018-06-24T03:39:10.732Z,1013.42
2018-06-24T03:40:10.755Z,1013.45
2018-06-24T03:41:10.777Z,1013.43
2018-06-24T03:42:10.798Z,1013.38
2018-06-24T03:43:10.819Z,1013.42
2018-06-24T03:44:10.840Z,1013.4
2018-06-24T03:45:10.863Z,1013.41
2018-06-24T03:46:10.883Z,1013.41
2018-06-24T03:47:10.905Z,1013.41
2018-06-24T03:48:10.928Z,1013.37
2018-06-24T03:49:10.947Z,1013.37
2018-06-24T03:50:10.969Z,1013.4
2018-06-24T03:51:11.092Z,1013.38
2018-06-24T03:52:11.013Z,1013.41
2018-06-24T03:54:11.056Z,1013.36
2018-06-24T03:55:11.077Z,1013.37
2018-06-24T03:56:11.733Z,1013.39
2018-06-24T03:57:11.120Z,1013.36
2018-06-24T03:58:11.203Z,1013.35
2018-06-24T03:59:11.161Z,1013.39
2018-06-24T04:00:11.185Z,1013.39
2018-06-24T04:01:11.206Z,1013.36
2018-06-24T04:02:11.225Z,1013.37
2018-06-24T04:03:11.248Z,1013.42
2018-06-24T04:04:11.270Z,1013.39
2018-06-24T04:05:11.292Z,1013.38
2018-06-24T04:06:11.311Z,1013.36
2018-06-24T04:07:11.334Z,1013.41
2018-06-24T04:08:11.356Z,1013.42
2018-06-24T04:09:11.379Z,1013.41
2018-06-24T04:10:11.398Z,1013.45
2018-06-24T04:11:11.420Z,1013.4
2018-06-24T04:12:11.441Z,1013.4
2018-06-24T04:13:11.465Z,1013.41
2018-06-24T04:14:11.492Z,1013.43
2018-06-24T04:15:11.507Z,1013.44
2018-06-24T04:16:11.527Z,1013.39
2018-06-24T04:17:11.549Z,1013.46
2018-06-24T04:18:11.570Z,1013.46
2018-06-24T04:19:11.593Z,1013.47
2018-06-24T04:20:11.616Z,1013.44
2018-06-24T04:21:11.637Z,1013.49
2018-06-24T04:22:11.656Z,1013.45
2018-06-24T04:23:11.684Z,1013.44
2018-06-24T04:24:11.698Z,1013.41
2018-06-24T04:26:11.742Z,1013.4
2018-06-24T04:27:11.771Z,1013.41
2018-06-24T04:28:11.784Z,1013.48
2018-06-24T04:29:11.806Z,1013.43
2018-06-24T04:30:11.829Z,1013.41
2018-06-24T04:31:11.853Z,1013.38
2018-06-24T04:32:11.870Z,1013.39
2018-06-24T04:33:11.893Z,1013.44
2018-06-24T04:34:11.916Z,1013.4
2018-06-24T04:35:11.935Z,1013.4
2018-06-24T04:36:11.956Z,1013.37
2018-06-24T04:37:11.980Z,1013.4
2018-06-24T04:38:12.002Z,1013.44
2018-06-24T04:39:12.027Z,1013.43
2018-06-24T04:40:12.045Z,1013.43
2018-06-24T04:42:12.090Z,1013.37
2018-06-24T04:43:12.110Z,1013.39
2018-06-24T04:44:12.132Z,1013.44
2018-06-24T04:45:12.154Z,1013.41
2018-06-24T04:46:12.175Z,1013.41
2018-06-24T04:47:12.197Z,1013.39
2018-06-24T04:48:12.217Z,1013.42
2018-06-24T04:49:12.242Z,1013.4
2018-06-24T04:50:12.262Z,1013.42
2018-06-24T04:51:12.283Z,1013.42
2018-06-24T04:52:12.306Z,1013.41
2018-06-24T04:53:12.339Z,1013.39
2018-06-24T04:54:12.347Z,1013.39
2018-06-24T04:55:12.370Z,1013.41
2018-06-24T04:56:12.392Z,1013.39
2018-06-24T04:58:12.434Z,1013.41
2018-06-24T04:59:12.458Z,1013.4
2018-06-24T05:00:12.479Z,1013.44
2018-06-24T05:01:12.499Z,1013.4
2018-06-24T05:02:12.522Z,1013.39
2018-06-24T05:03:12.553Z,1013.45
2018-06-24T05:04:12.566Z,1013.37
2018-06-24T05:05:12.588Z,1013.42
2018-06-24T05:06:12.609Z,1013.42
2018-06-24T05:07:12.632Z,1013.43
2018-06-24T05:08:12.654Z,1013.44
2018-06-24T05:09:12.674Z,1013.46
2018-06-24T05:10:12.695Z,1013.47
2018-06-24T05:11:12.718Z,1013.47
2018-06-24T05:12:12.739Z,1013.44
2018-06-24T05:14:12.783Z,1013.39
2018-06-24T05:15:12.809Z,1013.36
2018-06-24T05:16:12.825Z,1013.41
2018-06-24T05:17:12.848Z,1013.44
2018-06-24T05:18:12.871Z,1013.41
2018-06-24T05:19:12.892Z,1013.39
2018-06-24T05:20:12.913Z,1013.38
2018-06-24T05:21:12.935Z,1013.4
2018-06-24T05:22:12.962Z,1013.42
2018-06-24T05:23:12.978Z,1013.38
2018-06-24T05:24:13.003Z,1013.41
2018-06-24T05:25:13.023Z,1013.41
2018-06-24T05:26:13.046Z,1013.43
2018-06-24T05:27:13.066Z,1013.39
2018-06-24T05:29:13.112Z,1013.41
2018-06-24T05:30:13.133Z,1013.43
2018-06-24T05:31:13.154Z,1013.38
2018-06-24T05:32:13.177Z,1013.38
2018-06-24T05:33:13.197Z,1013.45
2018-06-24T05:34:13.220Z,1013.46
2018-06-24T05:35:13.242Z,1013.43
2018-06-24T05:36:13.265Z,1013.42
2018-06-24T05:37:13.287Z,1013.41
2018-06-24T05:38:13.305Z,1013.41
2018-06-24T05:39:13.328Z,1013.42
2018-06-24T05:40:13.352Z,1013.45
2018-06-24T05:41:13.372Z,1013.4
2018-06-24T05:42:13.395Z,1013.44
2018-06-24T05:43:13.417Z,1013.45
2018-06-24T05:44:13.439Z,1013.47
2018-06-24T05:45:13.462Z,1013.46
2018-06-24T05:46:13.483Z,1013.5
2018-06-24T05:47:13.504Z,1013.52
2018-06-24T05:48:13.526Z,1013.46
2018-06-24T05:49:13.549Z,1013.51
2018-06-24T05:50:13.570Z,1013.52
2018-06-24T05:51:13.597Z,1013.49
2018-06-24T05:52:13.614Z,1013.51
2018-06-24T05:53:13.640Z,1013.56
2018-06-24T05:54:13.672Z,1013.51
2018-06-24T05:55:13.684Z,1013.51
2018-06-24T05:56:13.701Z,1013.49
2018-06-24T05:57:13.723Z,1013.5
2018-06-24T05:58:13.745Z,1013.51
2018-06-24T05:59:13.766Z,1013.48
2018-06-24T06:01:13.810Z,1013.5
2018-06-24T06:02:13.834Z,1013.48
2018-06-24T06:03:13.853Z,1013.52
2018-06-24T06:04:13.875Z,1013.5
2018-06-24T06:05:13.898Z,1013.42
2018-06-24T06:06:13.921Z,1013.5
2018-06-24T06:07:13.942Z,1013.54
2018-06-24T06:08:13.964Z,1013.5
2018-06-24T06:09:13.987Z,1013.51
2018-06-24T06:10:14.053Z,1013.51
2018-06-24T06:11:14.029Z,1013.49
2018-06-24T06:12:14.054Z,1013.48
2018-06-24T06:13:14.075Z,1013.47
2018-06-24T06:14:14.095Z,1013.54
2018-06-24T06:15:14.117Z,1013.47
2018-06-24T06:17:14.163Z,1013.48
2018-06-24T06:18:14.184Z,1013.51
2018-06-24T06:19:14.205Z,1013.47
2018-06-24T06:20:14.229Z,1013.46
2018-06-24T06:21:14.250Z,1013.48
2018-06-24T06:22:14.272Z,1013.5
2018-06-24T06:23:14.295Z,1013.49
2018-06-24T06:24:14.316Z,1013.52
2018-06-24T06:25:14.339Z,1013.49
2018-06-24T06:26:14.360Z,1013.49
2018-06-24T06:27:14.383Z,1013.5
2018-06-24T06:28:14.405Z,1013.54
2018-06-24T06:29:14.429Z,1013.52
2018-06-24T06:30:14.483Z,1013.51
2018-06-24T06:31:14.471Z,1013.56
2018-06-24T06:33:14.515Z,1013.55
2018-06-24T06:34:14.537Z,1013.47
2018-06-24T06:35:14.561Z,1013.53
2018-06-24T06:36:14.581Z,1013.58
2018-06-24T06:37:14.604Z,1013.6
2018-06-24T06:38:14.626Z,1013.6
2018-06-24T06:39:14.648Z,1013.56
2018-06-24T06:40:14.669Z,1013.56
2018-06-24T06:41:14.691Z,1013.57
2018-06-24T06:42:14.714Z,1013.6
2018-06-24T06:43:14.736Z,1013.6
2018-06-24T06:44:14.757Z,1013.58
2018-06-24T06:45:15.045Z,1013.55
2018-06-24T06:46:14.803Z,1013.53
2018-06-24T06:47:14.824Z,1013.57
2018-06-24T06:49:14.869Z,1013.6
2018-06-24T06:50:14.893Z,1013.61
2018-06-24T06:51:14.912Z,1013.58
2018-06-24T06:52:14.934Z,1013.62
2018-06-24T06:53:14.961Z,1013.62
2018-06-24T06:54:14.979Z,1013.63
2018-06-24T06:55:15.001Z,1013.65
2018-06-24T06:56:15.023Z,1013.65
2018-06-24T06:57:15.051Z,1013.62
2018-06-24T06:58:15.077Z,1013.65
2018-06-24T06:59:15.091Z,1013.63
2018-06-24T07:00:15.166Z,1013.65
2018-06-24T07:01:15.135Z,1013.63
2018-06-24T07:02:15.158Z,1013.64
2018-06-24T07:04:15.202Z,1013.61
2018-06-24T07:05:15.224Z,1013.66
2018-06-24T07:06:15.247Z,1013.6
2018-06-24T07:07:15.268Z,1013.63
2018-06-24T07:08:15.292Z,1013.67
2018-06-24T07:09:15.314Z,1013.67
2018-06-24T07:10:15.335Z,1013.7
2018-06-24T07:11:15.357Z,1013.69
2018-06-24T07:12:15.379Z,1013.71
2018-06-24T07:13:15.402Z,1013.64
2018-06-24T07:14:15.425Z,1013.74
2018-06-24T07:15:15.498Z,1013.71
2018-06-24T07:16:15.469Z,1013.77
2018-06-24T07:17:15.496Z,1013.76
2018-06-24T07:18:15.515Z,1013.76
2018-06-24T07:19:15.538Z,1013.84
2018-06-24T07:20:15.559Z,1013.76
2018-06-24T07:21:15.582Z,1013.79
2018-06-24T07:22:15.608Z,1013.78
2018-06-24T07:23:15.625Z,1013.77
2018-06-24T07:24:15.649Z,1013.73
2018-06-24T07:25:15.673Z,1013.81
2018-06-24T07:26:15.696Z,1013.72
2018-06-24T07:27:15.715Z,1013.7
2018-06-24T07:28:15.739Z,1013.75
2018-06-24T07:29:15.762Z,1013.76
2018-06-24T07:30:15.884Z,1013.75
2018-06-24T07:31:15.806Z,1013.76
2018-06-24T07:32:15.828Z,1013.77
2018-06-24T07:33:15.918Z,1013.8
2018-06-24T07:34:15.873Z,1013.8
2018-06-24T07:36:15.919Z,1013.79
2018-06-24T07:37:15.942Z,1013.81
2018-06-24T07:38:15.962Z,1013.82
2018-06-24T07:39:16.031Z,1013.85
2018-06-24T07:40:16.010Z,1013.79
2018-06-24T07:41:16.033Z,1013.88
2018-06-24T07:42:16.056Z,1013.82
2018-06-24T07:43:16.077Z,1013.86
2018-06-24T07:44:16.101Z,1013.84
2018-06-24T07:45:16.123Z,1013.81
2018-06-24T07:46:16.146Z,1013.82
2018-06-24T07:47:16.170Z,1013.78
2018-06-24T07:48:16.193Z,1013.76
2018-06-24T07:49:16.215Z,1013.81
2018-06-24T07:50:16.265Z,1013.77
2018-06-24T07:52:16.284Z,1013.76
2018-06-24T07:53:16.305Z,1013.81
2018-06-24T07:54:16.329Z,1013.73
2018-06-24T07:55:16.350Z,1013.79
2018-06-24T07:56:16.374Z,1013.8
2018-06-24T07:57:16.407Z,1013.76
2018-06-24T07:58:16.420Z,1013.72
2018-06-24T07:59:16.443Z,1013.75
2018-06-24T08:00:16.465Z,1013.78
2018-06-24T08:01:16.488Z,1013.76
2018-06-24T08:02:16.511Z,1013.77
2018-06-24T08:03:16.571Z,1013.75
2018-06-24T08:04:16.556Z,1013.79
2018-06-24T08:05:16.589Z,1013.79
2018-06-24T08:06:16.602Z,1013.8
2018-06-24T08:08:16.647Z,1013.84
2018-06-24T08:09:16.669Z,1013.81
2018-06-24T08:10:16.691Z,1013.8
2018-06-24T08:11:16.775Z,1013.84
2018-06-24T08:12:16.738Z,1013.81
2018-06-24T08:13:16.761Z,1013.85
2018-06-24T08:14:16.784Z,1013.87
2018-06-24T08:15:16.805Z,1013.87
2018-06-24T08:16:16.829Z,1013.9
2018-06-24T08:17:16.860Z,1013.88
2018-06-24T08:18:16.874Z,1013.89
2018-06-24T08:19:16.897Z,1013.88
2018-06-24T08:20:16.920Z,1013.92
2018-06-24T08:21:16.946Z,1013.85
2018-06-24T08:22:16.966Z,1013.91
2018-06-24T08:24:17.011Z,1013.89
2018-06-24T08:25:17.035Z,1013.97
2018-06-24T08:26:17.056Z,1013.96
2018-06-24T08:27:17.083Z,1013.99
2018-06-24T08:28:17.102Z,1013.97
2018-06-24T08:29:17.127Z,1013.99
2018-06-24T08:30:17.151Z,1014.03
2018-06-24T08:31:17.170Z,1013.93
2018-06-24T08:32:17.197Z,1013.98
2018-06-24T08:33:17.217Z,1013.95
2018-06-24T08:34:17.240Z,1013.97
2018-06-24T08:35:17.268Z,1013.98
2018-06-24T08:36:17.290Z,1013.98
2018-06-24T08:37:17.309Z,1013.99
2018-06-24T08:39:17.362Z,1013.93
2018-06-24T08:40:17.377Z,1013.96
2018-06-24T08:41:17.401Z,1013.96
2018-06-24T08:42:17.422Z,1013.95
2018-06-24T08:43:17.457Z,1014
2018-06-24T08:44:17.468Z,1013.98
2018-06-24T08:45:17.491Z,1014.04
2018-06-24T08:46:17.514Z,1014.02
2018-06-24T08:47:17.560Z,1014.06
2018-06-24T08:48:17.560Z,1014.04
2018-06-24T08:49:17.581Z,1014.08
2018-06-24T08:50:17.606Z,1014.09
2018-06-24T08:51:17.628Z,1014.14
2018-06-24T08:52:17.652Z,1014.11
2018-06-24T08:53:17.725Z,1014.07
2018-06-24T08:54:17.704Z,1014.14
2018-06-24T08:55:17.718Z,1014.12
2018-06-24T08:56:17.742Z,1014.1
2018-06-24T08:57:17.765Z,1014.12
2018-06-24T08:58:17.787Z,1014.1
2018-06-24T08:59:17.810Z,1014.12
2018-06-24T09:00:17.834Z,1014.11
2018-06-24T09:01:17.856Z,1014.13
2018-06-24T09:02:17.879Z,1014.09
2018-06-24T09:03:17.902Z,1014.14
2018-06-24T09:04:17.925Z,1014.13
2018-06-24T09:05:17.949Z,1014.15
2018-06-24T09:06:17.971Z,1014.18
2018-06-24T09:07:17.994Z,1014.19
2018-06-24T09:08:18.016Z,1014.16
2018-06-24T09:09:18.039Z,1014.17
2018-06-24T09:11:18.086Z,1014.18
2018-06-24T09:12:18.109Z,1014.16
2018-06-24T09:13:18.131Z,1014.15
2018-06-24T09:14:18.181Z,1014.16
2018-06-24T09:15:18.177Z,1014.18
2018-06-24T09:16:18.204Z,1014.16
2018-06-24T09:17:18.223Z,1014.21
2018-06-24T09:18:18.247Z,1014.15
2018-06-24T09:19:18.269Z,1014.19
2018-06-24T09:20:18.293Z,1014.19
2018-06-24T09:21:18.366Z,1014.16
2018-06-24T09:22:18.389Z,1014.24
2018-06-24T09:23:18.363Z,1014.16
2018-06-24T09:24:18.392Z,1014.21
2018-06-24T09:25:18.409Z,1014.23
2018-06-24T09:27:18.461Z,1014.15
2018-06-24T09:28:18.477Z,1014.19
2018-06-24T09:29:18.502Z,1014.18
2018-06-24T09:30:18.527Z,1014.14
2018-06-24T09:31:18.549Z,1014.18
2018-06-24T09:32:18.572Z,1014.12
2018-06-24T09:33:18.597Z,1014.13
2018-06-24T09:34:18.623Z,1014.19
2018-06-24T09:35:18.642Z,1014.22
2018-06-24T09:36:18.667Z,1014.14
2018-06-24T09:37:18.691Z,1014.11
2018-06-24T09:38:18.715Z,1014.19
2018-06-24T09:39:18.738Z,1014.16
2018-06-24T09:40:18.761Z,1014.17
2018-06-24T09:41:18.786Z,1014.2
2018-06-24T09:43:18.834Z,1014.12
2018-06-24T09:44:18.857Z,1014.12
2018-06-24T09:45:18.880Z,1014.01
2018-06-24T09:46:18.906Z,1014.2
2018-06-24T09:47:18.929Z,1014.16
2018-06-24T09:48:18.954Z,1014.16
2018-06-24T09:49:18.982Z,1014.19
2018-06-24T09:50:19.001Z,1014.14
2018-06-24T09:51:19.025Z,1014.16
2018-06-24T09:52:19.050Z,1014.16
2018-06-24T09:53:19.072Z,1014.16
2018-06-24T09:54:19.096Z,1014.19
2018-06-24T09:55:19.121Z,1014.14
2018-06-24T09:56:19.144Z,1014.18
2018-06-24T09:57:19.169Z,1014.15
2018-06-24T09:59:19.220Z,1014.16
2018-06-24T10:00:19.241Z,1014.17
2018-06-24T10:01:19.263Z,1014.18
2018-06-24T10:02:19.286Z,1014.16
2018-06-24T10:03:19.373Z,1014.19
2018-06-24T10:04:19.335Z,1014.2
2018-06-24T10:05:19.360Z,1014.1
2018-06-24T10:06:19.384Z,1014.13
2018-06-24T10:07:19.408Z,1014.19
2018-06-24T10:08:19.438Z,1014.18
2018-06-24T10:09:19.455Z,1014.23
2018-06-24T10:10:19.480Z,1014.21
2018-06-24T10:11:19.503Z,1014.17
2018-06-24T10:12:19.529Z,1014.19
2018-06-24T10:14:19.576Z,1014.21
2018-06-24T10:15:19.601Z,1014.2
2018-06-24T10:16:19.626Z,1014.2
2018-06-24T10:17:19.649Z,1014.24
2018-06-24T10:18:19.673Z,1014.19
2018-06-24T10:19:19.697Z,1014.22
2018-06-24T10:20:19.722Z,1014.22
2018-06-24T10:21:19.745Z,1014.21
2018-06-24T10:22:19.770Z,1014.22
2018-06-24T10:23:19.794Z,1014.17
2018-06-24T10:24:19.818Z,1014.21
2018-06-24T10:25:19.846Z,1014.21
2018-06-24T10:26:19.868Z,1014.21
2018-06-24T10:27:19.891Z,1014.25
2018-06-24T10:28:19.917Z,1014.19
2018-06-24T10:29:19.944Z,1014.26
2018-06-24T10:30:19.964Z,1014.23
2018-06-24T10:31:19.990Z,1014.21
2018-06-24T10:32:20.013Z,1014.29
2018-06-24T10:33:20.037Z,1014.22
2018-06-24T10:34:20.061Z,1014.2
2018-06-24T10:35:20.086Z,1014.21
2018-06-24T10:36:20.108Z,1014.21
2018-06-24T10:37:20.137Z,1014.18
2018-06-24T10:38:20.159Z,1014.22
2018-06-24T10:39:20.189Z,1014.23
2018-06-24T10:40:20.208Z,1014.17
2018-06-24T10:41:20.235Z,1014.2
2018-06-24T10:42:20.265Z,1014.14
2018-06-24T10:43:20.280Z,1014.14
2018-06-24T10:44:20.306Z,1014.1
2018-06-24T10:46:20.404Z,1014.06
2018-06-24T10:47:20.385Z,1014.06
2018-06-24T10:48:20.402Z,1014.09
2018-06-24T10:49:20.425Z,1014.09
2018-06-24T10:50:20.451Z,1014.03
2018-06-24T10:51:20.475Z,1014.08
2018-06-24T10:52:20.500Z,1014.09
2018-06-24T10:53:20.524Z,1014.03
2018-06-24T10:54:20.548Z,1014.11
2018-06-24T10:55:20.573Z,1014.06
2018-06-24T10:56:20.597Z,1014.07
2018-06-24T10:57:20.622Z,1014.12
2018-06-24T10:58:20.645Z,1014.09
2018-06-24T10:59:20.670Z,1014.06
2018-06-24T11:00:20.695Z,1014.08
2018-06-24T11:02:20.816Z,1014.1
2018-06-24T11:03:20.766Z,1014.1
2018-06-24T11:04:20.798Z,1014.12
2018-06-24T11:05:20.816Z,1014.07
2018-06-24T11:06:20.840Z,1014.14
2018-06-24T11:07:20.864Z,1014.11
2018-06-24T11:08:20.888Z,1014.12
2018-06-24T11:09:20.912Z,1014.05
2018-06-24T11:10:20.936Z,1014.04
2018-06-24T11:11:20.961Z,1014.08
2018-06-24T11:12:20.984Z,1014.1
2018-06-24T11:13:21.010Z,1014.03
2018-06-24T11:14:21.032Z,1014.06
2018-06-24T11:15:21.058Z,1014.01
2018-06-24T11:16:21.084Z,1014.01
2018-06-24T11:18:21.130Z,1014
2018-06-24T11:19:21.155Z,1013.99
2018-06-24T11:20:21.180Z,1013.99
2018-06-24T11:21:21.202Z,1013.98
2018-06-24T11:22:21.228Z,1014.03
2018-06-24T11:23:21.252Z,1013.97
2018-06-24T11:24:21.277Z,1014.02
2018-06-24T11:25:21.299Z,1014.02
2018-06-24T11:26:21.326Z,1014.07
2018-06-24T11:27:21.350Z,1014.1
2018-06-24T11:28:21.376Z,1014.15
2018-06-24T11:29:21.398Z,1014.1
2018-06-24T11:30:21.423Z,1014.1
2018-06-24T11:31:21.446Z,1014
2018-06-24T11:32:21.472Z,1014.07
2018-06-24T11:34:21.519Z,1014.11
2018-06-24T11:35:21.546Z,1014.07
2018-06-24T11:36:21.568Z,1013.99
2018-06-24T11:37:21.593Z,1013.99
2018-06-24T11:38:21.615Z,1014.1
2018-06-24T11:39:21.639Z,1014.04
2018-06-24T11:40:21.669Z,1014.02
2018-06-24T11:41:21.692Z,1014.06
2018-06-24T11:42:21.713Z,1014.02
2018-06-24T11:43:21.736Z,1014.05
2018-06-24T11:44:21.760Z,1014.05
2018-06-24T11:45:21.784Z,1014.13
2018-06-24T11:46:21.809Z,1014.14
2018-06-24T11:47:21.834Z,1014.16
2018-06-24T11:49:21.882Z,1014.12
2018-06-24T11:50:22.006Z,1014.1
2018-06-24T11:51:21.929Z,1014.09
2018-06-24T11:52:21.954Z,1014.04
2018-06-24T11:53:21.977Z,1014.04
2018-06-24T11:54:22.002Z,1014.06
2018-06-24T11:55:22.026Z,1014.01
2018-06-24T11:56:22.051Z,1014.03
2018-06-24T11:57:22.074Z,1014.03
2018-06-24T11:58:22.099Z,1013.99
2018-06-24T11:59:22.122Z,1013.95
2018-06-24T12:00:22.297Z,1013.94
2018-06-24T12:01:22.171Z,1013.99
2018-06-24T12:02:22.193Z,1013.91
2018-06-24T12:03:22.219Z,1013.93
2018-06-24T12:04:22.243Z,1013.94
2018-06-24T12:05:22.266Z,1013.96
2018-06-24T12:06:22.291Z,1013.85
2018-06-24T12:07:22.314Z,1013.86
2018-06-24T12:08:22.338Z,1013.95
2018-06-24T12:09:22.362Z,1013.95
2018-06-24T12:10:22.387Z,1013.89
2018-06-24T12:11:22.411Z,1013.91
2018-06-24T12:12:22.434Z,1013.95
2018-06-24T12:13:22.459Z,1013.92
2018-06-24T12:14:22.483Z,1013.83
2018-06-24T12:15:22.508Z,1013.99
2018-06-24T12:16:22.531Z,1013.91
2018-06-24T12:17:22.556Z,1013.93
2018-06-24T12:18:22.581Z,1013.92
2018-06-24T12:19:22.604Z,1013.83
2018-06-24T12:21:22.654Z,1013.86
2018-06-24T12:22:22.679Z,1013.92
2018-06-24T12:23:22.700Z,1013.9
2018-06-24T12:24:22.726Z,1013.91
2018-06-24T12:25:22.751Z,1013.91
2018-06-24T12:26:22.776Z,1013.93
2018-06-24T12:27:22.800Z,1013.91
2018-06-24T12:28:22.825Z,1013.91
2018-06-24T12:29:22.849Z,1013.89
2018-06-24T12:30:22.874Z,1013.89
2018-06-24T12:31:22.898Z,1013.91
2018-06-24T12:32:22.925Z,1013.97
2018-06-24T12:33:22.947Z,1013.91
2018-06-24T12:34:22.971Z,1013.93
2018-06-24T12:35:22.998Z,1013.92
2018-06-24T12:37:23.054Z,1013.9
2018-06-24T12:38:23.072Z,1013.84
2018-06-24T12:39:23.096Z,1013.93
2018-06-24T12:40:23.122Z,1013.89
2018-06-24T12:41:23.144Z,1013.99
2018-06-24T12:42:23.176Z,1013.9
2018-06-24T12:43:23.252Z,1013.85
2018-06-24T12:44:23.221Z,1013.82
2018-06-24T12:45:23.246Z,1013.85
2018-06-24T12:46:23.271Z,1013.78
2018-06-24T12:47:23.295Z,1013.86
2018-06-24T12:48:23.320Z,1013.84
2018-06-24T12:49:23.345Z,1013.82